Time;durP1;ratioP1;P1;durP2;ratioP2;P2;SDS_P1;SDS_P2;PMS_P1;PMS_P2;Temp;Humidity;BMP_temperature;BMP_pressure;BME280_temperature;BME280_humidity;BME280_pressure;Samples;Min_cycle;Max_cycle;Signal;HPM_P1;HPM_P2
2023/05/27 00:03:09;;;;;;;29.67;19.85;;;12.60;99.90;;;;;;20910878;28;20490;-56
2023/05/27 00:13:11;;;;;;;29.70;19.75;;;12.70;99.90;;;;;;20915615;28;20029;-49
2023/05/27 00:23:12;;;;;;;25.83;18.48;;;12.50;99.90;;;;;;20913295;28;20035;-47
2023/05/27 00:33:14;;;;;;;26.17;17.05;;;12.60;99.90;;;;;;20917699;28;20037;-56
2023/05/27 00:43:16;;;;;;;27.00;19.00;;;12.90;99.90;;;;;;20916306;28;20040;-56
2023/05/27 00:53:19;;;;;;;28.30;20.35;;;13.20;99.90;;;;;;20911754;28;20028;-46
2023/05/27 01:03:21;;;;;;;27.55;20.75;;;13.50;99.90;;;;;;20911262;28;20029;-48
2023/05/27 01:13:22;;;;;;;29.65;19.95;;;13.80;99.90;;;;;;20904714;28;20041;-58
2023/05/27 01:23:24;;;;;;;38.35;25.48;;;13.70;99.90;;;;;;20904665;28;20029;-48
2023/05/27 01:33:30;;;;;;;24.73;17.33;;;13.20;99.90;;;;;;20903632;28;20102;-58
2023/05/27 01:43:33;;;;;;;26.90;18.60;;;12.80;99.90;;;;;;20902873;28;20044;-55
2023/05/27 01:53:35;;;;;;;26.23;17.48;;;12.60;99.90;;;;;;20908126;28;20032;-58
2023/05/27 02:03:37;;;;;;;23.70;15.02;;;12.40;99.90;;;;;;20907483;28;20466;-57
2023/05/27 02:13:41;;;;;;;26.30;16.30;;;12.20;99.90;;;;;;20899595;28;20075;-58
2023/05/27 02:23:42;;;;;;;25.45;16.30;;;12.00;99.90;;;;;;20903653;28;20075;-57
2023/05/27 02:33:44;;;;;;;20.33;13.80;;;11.90;99.90;;;;;;20902447;28;20122;-54
2023/05/27 02:43:46;;;;;;;28.73;18.00;;;11.80;99.90;;;;;;20904177;28;20166;-58
2023/05/27 02:53:47;;;;;;;26.95;16.55;;;11.60;99.90;;;;;;20904113;28;20033;-57
2023/05/27 03:03:49;;;;;;;23.75;15.52;;;11.60;99.90;;;;;;20898097;28;20045;-58
2023/05/27 03:13:51;;;;;;;32.70;18.23;;;11.60;99.90;;;;;;20906107;28;20033;-56
2023/05/27 03:23:52;;;;;;;25.02;15.50;;;11.60;99.90;;;;;;20912549;28;20113;-57
2023/05/27 03:33:54;;;;;;;17.55;11.98;;;11.50;99.90;;;;;;20914817;28;20083;-57
2023/05/27 03:43:56;;;;;;;22.63;14.18;;;11.40;99.90;;;;;;20915468;28;20114;-56
2023/05/27 03:53:58;;;;;;;27.45;16.90;;;11.20;99.90;;;;;;20901229;28;20363;-49
2023/05/27 04:04:00;;;;;;;28.08;17.25;;;11.10;99.90;;;;;;20911873;28;20032;-57
2023/05/27 04:14:02;;;;;;;23.75;15.32;;;11.20;99.90;;;;;;20913288;28;20171;-56
2023/05/27 04:24:04;;;;;;;21.50;14.63;;;11.30;99.90;;;;;;20917447;28;20025;-57
2023/05/27 04:34:06;;;;;;;15.43;10.50;;;11.40;99.90;;;;;;20906367;28;20044;-49
2023/05/27 04:44:10;;;;;;;12.63;9.20;;;11.50;99.90;;;;;;20911105;28;20041;-49
2023/05/27 04:54:18;;;;;;;7.85;6.15;;;11.60;99.90;;;;;;20905611;28;20029;-54
2023/05/27 05:04:20;;;;;;;8.25;6.40;;;11.90;99.90;;;;;;20918384;28;20044;-44
2023/05/27 05:14:35;;;;;;;6.60;5.25;;;11.90;99.90;;;;;;20908490;28;20028;-46
2023/05/27 05:24:38;;;;;;;6.18;4.68;;;12.00;99.90;;;;;;20903176;28;20029;-48
2023/05/27 05:34:40;;;;;;;5.30;4.57;;;12.50;99.90;;;;;;20905999;28;20048;-52
2023/05/27 05:44:44;;;;;;;7.82;4.53;;;13.00;99.90;;;;;;20905049;28;20053;-50
2023/05/27 05:54:47;;;;;;;4.47;3.78;;;13.20;99.90;;;;;;20905203;28;20158;-49
2023/05/27 06:04:49;;;;;;;4.75;4.05;;;13.40;99.90;;;;;;20905711;28;20099;-59
2023/05/27 06:14:50;;;;;;;3.80;3.30;;;13.50;99.90;;;;;;20901264;28;20036;-59
2023/05/27 06:25:12;;;;;;;2.45;2.20;;;14.10;99.90;;;;;;20903564;28;20044;-54
2023/05/27 06:35:29;;;;;;;2.67;1.95;;;16.10;99.90;;;;;;20900236;28;20044;-62
2023/05/27 06:45:31;;;;;;;1.75;1.65;;;19.00;99.90;;;;;;20899482;28;20063;-58
2023/05/27 06:55:46;;;;;;;3.00;1.95;;;20.00;99.90;;;;;;20908764;28;20093;-58
2023/05/27 07:06:07;;;;;;;2.30;1.77;;;21.30;99.90;;;;;;20917452;28;20063;-57
2023/05/27 07:16:17;;;;;;;2.78;2.17;;;23.20;99.90;;;;;;20914032;28;20122;-57
2023/05/27 07:26:20;;;;;;;2.22;2.03;;;24.40;99.90;;;;;;20916088;28;20033;-50
2023/05/27 07:36:22;;;;;;;2.35;2.15;;;25.00;97.70;;;;;;20910475;28;20041;-48
2023/05/27 07:46:24;;;;;;;1.70;1.60;;;25.70;96.40;;;;;;20911999;28;20512;-57
2023/05/27 07:56:26;;;;;;;2.40;2.20;;;24.70;95.30;;;;;;20912861;28;20044;-57
2023/05/27 08:06:27;;;;;;;3.10;2.80;;;22.40;98.10;;;;;;20909232;28;20037;-48
2023/05/27 08:17:01;;;;;;;3.78;3.15;;;20.40;99.90;;;;;;20913708;28;20049;-57
2023/05/27 08:27:50;;;;;;;4.70;3.28;;;19.50;99.90;;;;;;20913014;28;20033;-57
2023/05/27 08:38:06;;;;;;;4.68;4.28;;;19.70;99.90;;;;;;20909909;28;20052;-56
2023/05/27 08:48:12;;;;;;;8.13;4.75;;;20.50;99.90;;;;;;20914135;28;20036;-50
2023/05/27 08:58:16;;;;;;;5.20;3.67;;;20.40;99.90;;;;;;20906258;28;20029;-55
2023/05/27 09:08:22;;;;;;;5.20;4.13;;;20.80;99.90;;;;;;20901151;28;20090;-57
2023/05/27 09:18:29;;;;;;;6.57;4.65;;;21.20;99.90;;;;;;20908908;28;20037;-57
2023/05/27 09:28:31;;;;;;;5.28;4.78;;;18.90;99.90;;;;;;20905666;28;20359;-57
2023/05/27 09:38:34;;;;;;;5.95;4.80;;;18.50;99.90;;;;;;20903383;28;20045;-57
2023/05/27 09:48:36;;;;;;;7.28;5.15;;;18.50;99.90;;;;;;20902844;28;20610;-57
2023/05/27 09:58:38;;;;;;;7.85;5.57;;;18.50;99.90;;;;;;20906538;28;20036;-56
2023/05/27 10:08:43;;;;;;;7.03;6.00;;;19.10;99.90;;;;;;20900840;28;20041;-57
2023/05/27 10:18:46;;;;;;;7.43;5.53;;;19.00;99.90;;;;;;20900150;28;20029;-57
2023/05/27 10:28:47;;;;;;;6.50;5.47;;;20.10;99.90;;;;;;20903695;28;20040;-57
2023/05/27 10:39:04;;;;;;;6.72;5.95;;;21.40;99.90;;;;;;20923502;28;20041;-57
2023/05/27 10:49:22;;;;;;;9.20;7.10;;;22.30;99.90;;;;;;20916498;28;20041;-47
2023/05/27 10:59:25;;;;;;;;;;;21.40;99.90;;;;;;20919142;28;20433;-57
2023/05/27 11:09:27;;;;;;;10.23;8.23;;;19.00;99.90;;;;;;20927631;28;19940;-46
2023/05/27 11:19:28;;;;;;;10.45;7.63;;;17.80;99.90;;;;;;20915166;28;20482;-57
2023/05/27 11:29:31;;;;;;;9.32;7.47;;;17.30;99.90;;;;;;20913768;28;20784;-57
2023/05/27 11:39:33;;;;;;;8.40;6.35;;;17.00;99.90;;;;;;20916279;28;20056;-50
2023/05/27 11:49:35;;;;;;;7.75;6.53;;;18.70;99.90;;;;;;20912109;28;20078;-57
2023/05/27 11:59:37;;;;;;;8.48;6.53;;;21.30;99.90;;;;;;20911390;28;20040;-57
2023/05/27 12:09:39;;;;;;;7.35;6.15;;;21.50;99.90;;;;;;20908157;28;20086;-57
2023/05/27 12:19:41;;;;;;;10.50;7.55;;;21.40;99.90;;;;;;20913296;28;20044;-57
2023/05/27 12:29:42;;;;;;;10.55;8.25;;;20.60;99.90;;;;;;20909481;28;20029;-57
2023/05/27 12:39:44;;;;;;;9.95;7.63;;;19.70;99.90;;;;;;20907936;28;20053;-50
2023/05/27 12:49:46;;;;;;;9.73;8.05;;;19.00;99.90;;;;;;20912643;28;20257;-48
2023/05/27 12:59:47;;;;;;;9.85;8.25;;;18.50;99.90;;;;;;20908443;28;20037;-56
2023/05/27 13:09:49;;;;;;;8.52;7.25;;;19.00;99.90;;;;;;20906464;28;20032;-57
2023/05/27 13:19:51;;;;;;;9.20;7.28;;;19.70;99.90;;;;;;20905174;28;20429;-57
2023/05/27 13:29:52;;;;;;;10.10;8.35;;;18.60;99.90;;;;;;20905266;28;20045;-57
2023/05/27 13:39:55;;;;;;;9.43;8.43;;;17.90;99.90;;;;;;20903674;28;20049;-57
2023/05/27 13:49:57;;;;;;;10.60;8.68;;;17.40;99.90;;;;;;20903182;28;20091;-57
2023/05/27 13:59:58;;;;;;;12.27;8.90;;;16.90;99.90;;;;;;20907101;28;20118;-57
2023/05/27 14:10:00;;;;;;;13.30;9.23;;;16.70;99.90;;;;;;20900998;28;20033;-57
2023/05/27 14:20:10;;;;;;;14.13;9.95;;;16.70;99.90;;;;;;20905185;28;20418;-57
2023/05/27 14:30:12;;;;;;;13.75;10.63;;;16.50;99.90;;;;;;20903733;28;20037;-57
2023/05/27 14:40:13;;;;;;;12.48;10.23;;;16.00;99.90;;;;;;20904975;28;20075;-50
2023/05/27 14:50:15;;;;;;;14.90;11.25;;;15.50;99.90;;;;;;20904586;28;20028;-56
2023/05/27 15:00:17;;;;;;;14.20;11.55;;;15.20;99.90;;;;;;20905854;28;20091;-57
2023/05/27 15:10:19;;;;;;;20.25;13.73;;;14.90;99.90;;;;;;20907908;28;20041;-49
2023/05/27 15:20:20;;;;;;;20.55;15.00;;;14.70;99.90;;;;;;20907424;28;20559;-59
2023/05/27 15:30:22;;;;;;;26.27;16.63;;;14.20;99.90;;;;;;20913213;28;20033;-59
2023/05/27 15:40:24;;;;;;;22.70;17.02;;;13.80;99.90;;;;;;20919261;28;20045;-59
2023/05/27 15:50:26;;;;;;;25.98;17.40;;;13.80;99.90;;;;;;20916813;28;20494;-58
2023/05/27 16:00:28;;;;;;;22.38;17.02;;;14.00;99.90;;;;;;20915968;28;20033;-58
2023/05/27 16:10:29;;;;;;;18.92;14.63;;;14.40;99.90;;;;;;20911701;28;20040;-58
2023/05/27 16:20:31;;;;;;;16.35;13.25;;;14.80;99.90;;;;;;20913890;28;20037;-58
2023/05/27 16:30:33;;;;;;;16.08;12.57;;;15.20;99.90;;;;;;20910359;28;20037;-58
2023/05/27 16:40:35;;;;;;;14.73;11.35;;;15.80;99.90;;;;;;20908571;28;20045;-59
2023/05/27 16:50:37;;;;;;;18.10;12.88;;;15.30;99.90;;;;;;20907277;28;20044;-59
2023/05/27 17:00:40;;;;;;;27.95;19.52;;;14.40;99.90;;;;;;20911492;28;20032;-49
2023/05/27 17:10:42;;;;;;;18.30;14.48;;;13.60;99.90;;;;;;20910210;28;20041;-46
2023/05/27 17:20:44;;;;;;;9.48;6.53;;;13.50;99.90;;;;;;20902687;28;20040;-57
2023/05/27 17:30:46;;;;;;;12.32;7.85;;;13.50;99.90;;;;;;20904448;28;20154;-58
2023/05/27 17:40:47;;;;;;;7.95;5.68;;;13.40;99.90;;;;;;20904509;28;20049;-57
2023/05/27 17:50:49;;;;;;;7.70;5.47;;;13.00;99.90;;;;;;20905586;28;20045;-57
2023/05/27 18:00:51;;;;;;;8.07;5.57;;;12.50;99.90;;;;;;20902783;28;20028;-57
2023/05/27 18:10:52;;;;;;;8.85;5.45;;;12.40;99.90;;;;;;20902484;28;20037;-58
2023/05/27 18:20:55;;;;;;;9.20;5.95;;;12.10;99.90;;;;;;20901141;28;20415;-57
2023/05/27 18:30:57;;;;;;;12.27;8.93;;;12.00;99.90;;;;;;20902434;28;20352;-57
2023/05/27 18:40:59;;;;;;;8.52;5.85;;;11.90;99.90;;;;;;20900668;28;20049;-57
2023/05/27 18:51:01;;;;;;;9.68;4.53;;;11.80;99.90;;;;;;20904579;28;20082;-57
2023/05/27 19:01:03;;;;;;;7.85;4.20;;;11.50;99.90;;;;;;20915576;28;20033;-57
2023/05/27 19:11:05;;;;;;;8.20;4.50;;;11.10;99.90;;;;;;20914744;28;20032;-57
2023/05/27 19:21:06;;;;;;;9.82;5.43;;;10.60;99.90;;;;;;20913173;28;20036;-56
2023/05/27 19:31:10;;;;;;;9.38;4.85;;;10.20;99.90;;;;;;20910439;28;20086;-57
2023/05/27 19:41:12;;;;;;;8.63;4.82;;;9.80;99.90;;;;;;20916341;28;20490;-50
2023/05/27 19:51:14;;;;;;;6.90;4.88;;;9.80;99.90;;;;;;20912147;28;20033;-57
2023/05/27 20:01:15;;;;;;;8.25;5.00;;;9.90;99.90;;;;;;20915630;28;20098;-50
2023/05/27 20:11:17;;;;;;;8.65;5.32;;;10.20;99.90;;;;;;20910163;28;20033;-48
2023/05/27 20:21:21;;;;;;;9.48;5.50;;;10.30;99.90;;;;;;20910173;28;20482;-57
2023/05/27 20:31:22;;;;;;;9.13;5.82;;;10.40;99.90;;;;;;20914180;28;20474;-51
2023/05/27 20:41:26;;;;;;;9.00;5.40;;;10.70;99.90;;;;;;20908350;28;20510;-57
2023/05/27 20:51:28;;;;;;;8.32;5.47;;;11.00;99.90;;;;;;20904767;28;20078;-57
2023/05/27 21:01:29;;;;;;;7.35;5.47;;;10.90;99.90;;;;;;20906285;28;20025;-46
2023/05/27 21:11:31;;;;;;;9.02;6.00;;;10.80;99.90;;;;;;20904812;28;20055;-57
2023/05/27 21:21:33;;;;;;;10.77;6.10;;;10.80;99.90;;;;;;20911012;28;20366;-48
2023/05/27 21:31:34;;;;;;;9.50;5.93;;;10.80;99.90;;;;;;20904481;28;20029;-50
2023/05/27 21:41:36;;;;;;;9.77;6.28;;;11.00;99.90;;;;;;20902429;28;20170;-48
2023/05/27 21:51:38;;;;;;;11.38;5.90;;;11.10;99.90;;;;;;20906540;28;20066;-52
2023/05/27 22:01:39;;;;;;;7.50;5.50;;;11.40;99.90;;;;;;20901667;28;20033;-57
2023/05/27 22:11:41;;;;;;;15.93;6.05;;;11.50;99.90;;;;;;20899541;28;20379;-47
2023/05/27 22:21:43;;;;;;;10.13;6.00;;;11.50;99.90;;;;;;20909616;28;20055;-56
2023/05/27 22:31:44;;;;;;;9.07;5.93;;;11.70;99.90;;;;;;20902858;28;20471;-50
2023/05/27 22:41:45;;;;;;;9.13;6.60;;;11.50;99.90;;;;;;20904624;28;20094;-49
2023/05/27 22:51:47;;;;;;;11.88;5.82;;;11.40;99.90;;;;;;20903000;28;20115;-48
2023/05/27 23:01:49;;;;;;;8.77;6.65;;;11.40;99.90;;;;;;20899710;28;20033;-51
2023/05/27 23:11:50;;;;;;;10.07;6.72;;;11.40;99.90;;;;;;20899373;28;20382;-49
2023/05/27 23:21:52;;;;;;;11.07;6.80;;;11.30;99.90;;;;;;20898951;28;20474;-46
2023/05/27 23:31:54;;;;;;;10.30;6.22;;;11.30;99.90;;;;;;20900869;28;20082;-48
2023/05/27 23:41:55;;;;;;;11.50;6.50;;;11.30;99.90;;;;;;20910443;28;20045;-48
2023/05/27 23:51:57;;;;;;;12.77;6.10;;;11.40;99.90;;;;;;20912426;28;20044;-47
